sensor_id;sensor_type;location;lat;lon;timestamp;temperature;humidity
70706;DHT22;59320;52.316;10.870;2023-07-16T00:01:01;23.20;97.40
70706;DHT22;59320;52.316;10.870;2023-07-16T00:03:28;23.10;97.50
70706;DHT22;59320;52.316;10.870;2023-07-16T00:05:55;23.10;97.50
70706;DHT22;59320;52.316;10.870;2023-07-16T00:08:23;23.10;98.10
70706;DHT22;59320;52.316;10.870;2023-07-16T00:10:50;23.00;98.00
70706;DHT22;59320;52.316;10.870;2023-07-16T00:13:17;23.00;98.20
70706;DHT22;59320;52.316;10.870;2023-07-16T00:15:44;23.00;98.10
70706;DHT22;59320;52.316;10.870;2023-07-16T00:18:11;23.00;98.20
70706;DHT22;59320;52.316;10.870;2023-07-16T00:20:38;23.00;98.20
70706;DHT22;59320;52.316;10.870;2023-07-16T00:23:05;23.00;98.30
70706;DHT22;59320;52.316;10.870;2023-07-16T00:25:34;23.00;98.50
70706;DHT22;59320;52.316;10.870;2023-07-16T00:28:01;23.00;98.60
70706;DHT22;59320;52.316;10.870;2023-07-16T00:30:29;22.90;99.10
70706;DHT22;59320;52.316;10.870;2023-07-16T00:32:56;22.90;98.80
70706;DHT22;59320;52.316;10.870;2023-07-16T00:35:23;22.90;98.90
70706;DHT22;59320;52.316;10.870;2023-07-16T00:37:50;22.90;99.00
70706;DHT22;59320;52.316;10.870;2023-07-16T00:40:17;22.90;99.00
70706;DHT22;59320;52.316;10.870;2023-07-16T00:42:46;22.90;99.10
70706;DHT22;59320;52.316;10.870;2023-07-16T00:45:13;22.90;99.50
70706;DHT22;59320;52.316;10.870;2023-07-16T00:47:41;22.90;99.40
70706;DHT22;59320;52.316;10.870;2023-07-16T00:50:10;22.90;99.70
70706;DHT22;59320;52.316;10.870;2023-07-16T00:52:38;22.80;99.90
70706;DHT22;59320;52.316;10.870;2023-07-16T00:55:07;22.80;99.90
70706;DHT22;59320;52.316;10.870;2023-07-16T00:57:34;22.80;99.90
70706;DHT22;59320;52.316;10.870;2023-07-16T01:00:04;22.80;99.90
70706;DHT22;59320;52.316;10.870;2023-07-16T01:02:32;22.70;99.90
70706;DHT22;59320;52.316;10.870;2023-07-16T01:04:59;22.70;99.90
70706;DHT22;59320;52.316;10.870;2023-07-16T01:07:29;22.70;99.90
70706;DHT22;59320;52.316;10.870;2023-07-16T01:09:58;22.70;99.90
70706;DHT22;59320;52.316;10.870;2023-07-16T01:12:25;22.70;99.90
70706;DHT22;59320;52.316;10.870;2023-07-16T01:14:54;22.70;99.90
70706;DHT22;59320;52.316;10.870;2023-07-16T01:17:24;22.60;99.90
70706;DHT22;59320;52.316;10.870;2023-07-16T01:19:52;22.70;99.90
70706;DHT22;59320;52.316;10.870;2023-07-16T01:22:35;22.60;99.90
70706;DHT22;59320;52.316;10.870;2023-07-16T01:25:20;22.60;99.90
70706;DHT22;59320;52.316;10.870;2023-07-16T01:28:05;22.60;99.90
70706;DHT22;59320;52.316;10.870;2023-07-16T01:30:36;22.60;99.90
70706;DHT22;59320;52.316;10.870;2023-07-16T01:33:04;22.60;99.90
70706;DHT22;59320;52.316;10.870;2023-07-16T01:35:32;22.60;99.90
70706;DHT22;59320;52.316;10.870;2023-07-16T01:38:00;22.50;99.90
70706;DHT22;59320;52.316;10.870;2023-07-16T01:40:27;22.50;99.90
70706;DHT22;59320;52.316;10.870;2023-07-16T01:42:56;22.50;99.90
70706;DHT22;59320;52.316;10.870;2023-07-16T01:45:23;22.50;99.90
70706;DHT22;59320;52.316;10.870;2023-07-16T01:48:00;22.50;99.90
70706;DHT22;59320;52.316;10.870;2023-07-16T01:50:32;22.50;99.90
70706;DHT22;59320;52.316;10.870;2023-07-16T01:52:59;22.50;99.90
70706;DHT22;59320;52.316;10.870;2023-07-16T01:55:26;22.50;99.90
70706;DHT22;59320;52.316;10.870;2023-07-16T01:57:53;22.50;99.90
70706;DHT22;59320;52.316;10.870;2023-07-16T02:00:20;22.50;99.90
70706;DHT22;59320;52.316;10.870;2023-07-16T02:02:51;22.50;99.90
70706;DHT22;59320;52.316;10.870;2023-07-16T02:05:18;22.50;99.90
70706;DHT22;59320;52.316;10.870;2023-07-16T02:07:47;22.50;99.90
70706;DHT22;59320;52.316;10.870;2023-07-16T02:10:14;22.40;99.90
70706;DHT22;59320;52.316;10.870;2023-07-16T02:12:41;22.40;99.90
70706;DHT22;59320;52.316;10.870;2023-07-16T02:15:08;22.30;99.90
70706;DHT22;59320;52.316;10.870;2023-07-16T02:17:36;22.20;99.90
70706;DHT22;59320;52.316;10.870;2023-07-16T02:20:06;22.10;99.90
70706;DHT22;59320;52.316;10.870;2023-07-16T02:22:34;22.20;99.90
70706;DHT22;59320;52.316;10.870;2023-07-16T02:25:01;22.20;99.90
70706;DHT22;59320;52.316;10.870;2023-07-16T02:27:29;22.30;99.90
70706;DHT22;59320;52.316;10.870;2023-07-16T02:29:56;22.40;99.90
70706;DHT22;59320;52.316;10.870;2023-07-16T02:32:23;22.40;99.90
70706;DHT22;59320;52.316;10.870;2023-07-16T02:34:50;22.40;99.90
70706;DHT22;59320;52.316;10.870;2023-07-16T02:37:18;22.40;99.90
70706;DHT22;59320;52.316;10.870;2023-07-16T02:39:46;22.40;99.90
70706;DHT22;59320;52.316;10.870;2023-07-16T02:42:14;22.40;99.90
70706;DHT22;59320;52.316;10.870;2023-07-16T02:44:41;22.40;99.90
70706;DHT22;59320;52.316;10.870;2023-07-16T02:47:10;22.30;99.90
70706;DHT22;59320;52.316;10.870;2023-07-16T02:49:37;22.30;99.90
70706;DHT22;59320;52.316;10.870;2023-07-16T02:52:05;22.30;99.90
70706;DHT22;59320;52.316;10.870;2023-07-16T02:54:35;22.30;99.90
70706;DHT22;59320;52.316;10.870;2023-07-16T02:57:02;22.20;99.90
70706;DHT22;59320;52.316;10.870;2023-07-16T02:59:30;22.30;99.90
70706;DHT22;59320;52.316;10.870;2023-07-16T03:01:57;22.30;99.90
70706;DHT22;59320;52.316;10.870;2023-07-16T03:04:24;22.30;99.90
70706;DHT22;59320;52.316;10.870;2023-07-16T03:06:52;22.30;99.90
70706;DHT22;59320;52.316;10.870;2023-07-16T03:09:19;22.20;99.90
70706;DHT22;59320;52.316;10.870;2023-07-16T03:11:47;22.20;99.90
70706;DHT22;59320;52.316;10.870;2023-07-16T03:14:15;22.10;99.90
70706;DHT22;59320;52.316;10.870;2023-07-16T03:16:42;22.10;99.90
70706;DHT22;59320;52.316;10.870;2023-07-16T03:19:09;22.10;99.90
70706;DHT22;59320;52.316;10.870;2023-07-16T03:21:36;22.10;99.90
70706;DHT22;59320;52.316;10.870;2023-07-16T03:24:04;22.10;99.90
70706;DHT22;59320;52.316;10.870;2023-07-16T03:26:31;22.00;99.90
70706;DHT22;59320;52.316;10.870;2023-07-16T03:29:01;21.90;99.90
70706;DHT22;59320;52.316;10.870;2023-07-16T03:31:28;21.70;99.90
70706;DHT22;59320;52.316;10.870;2023-07-16T03:33:56;21.50;99.90
70706;DHT22;59320;52.316;10.870;2023-07-16T03:36:26;21.40;99.90
70706;DHT22;59320;52.316;10.870;2023-07-16T03:38:53;21.10;99.90
70706;DHT22;59320;52.316;10.870;2023-07-16T03:41:20;20.90;99.90
70706;DHT22;59320;52.316;10.870;2023-07-16T03:43:47;20.80;99.90
70706;DHT22;59320;52.316;10.870;2023-07-16T03:46:19;20.80;99.90
70706;DHT22;59320;52.316;10.870;2023-07-16T03:48:46;20.90;99.90
70706;DHT22;59320;52.316;10.870;2023-07-16T03:51:13;21.00;99.90
70706;DHT22;59320;52.316;10.870;2023-07-16T03:53:40;21.00;99.90
70706;DHT22;59320;52.316;10.870;2023-07-16T03:56:07;21.00;99.90
70706;DHT22;59320;52.316;10.870;2023-07-16T03:58:35;21.10;99.90
70706;DHT22;59320;52.316;10.870;2023-07-16T04:01:05;21.10;99.90
70706;DHT22;59320;52.316;10.870;2023-07-16T04:03:33;21.10;99.90
70706;DHT22;59320;52.316;10.870;2023-07-16T04:06:03;21.10;99.90
70706;DHT22;59320;52.316;10.870;2023-07-16T04:08:31;21.10;99.90
70706;DHT22;59320;52.316;10.870;2023-07-16T04:10:58;21.00;99.90
70706;DHT22;59320;52.316;10.870;2023-07-16T04:13:25;21.00;99.90
70706;DHT22;59320;52.316;10.870;2023-07-16T04:15:52;21.00;99.90
70706;DHT22;59320;52.316;10.870;2023-07-16T04:18:21;20.90;99.90
70706;DHT22;59320;52.316;10.870;2023-07-16T04:20:49;21.00;99.90
70706;DHT22;59320;52.316;10.870;2023-07-16T04:23:16;20.90;99.90
70706;DHT22;59320;52.316;10.870;2023-07-16T04:25:44;21.00;99.90
70706;DHT22;59320;52.316;10.870;2023-07-16T04:28:11;20.90;99.90
70706;DHT22;59320;52.316;10.870;2023-07-16T04:30:38;20.90;99.90
70706;DHT22;59320;52.316;10.870;2023-07-16T04:33:05;20.90;99.90
70706;DHT22;59320;52.316;10.870;2023-07-16T04:35:32;20.90;99.90
70706;DHT22;59320;52.316;10.870;2023-07-16T04:38:01;21.10;99.90
70706;DHT22;59320;52.316;10.870;2023-07-16T04:40:29;21.10;99.90
70706;DHT22;59320;52.316;10.870;2023-07-16T04:42:56;21.20;99.90
70706;DHT22;59320;52.316;10.870;2023-07-16T04:45:23;21.20;99.90
70706;DHT22;59320;52.316;10.870;2023-07-16T04:47:50;21.20;99.90
70706;DHT22;59320;52.316;10.870;2023-07-16T04:50:17;21.30;99.90
70706;DHT22;59320;52.316;10.870;2023-07-16T04:52:44;21.30;99.90
70706;DHT22;59320;52.316;10.870;2023-07-16T04:55:13;21.20;99.90
70706;DHT22;59320;52.316;10.870;2023-07-16T04:57:40;21.20;99.90
70706;DHT22;59320;52.316;10.870;2023-07-16T05:00:08;21.30;99.90
70706;DHT22;59320;52.316;10.870;2023-07-16T05:02:35;21.20;99.90
70706;DHT22;59320;52.316;10.870;2023-07-16T05:05:03;21.20;99.90
70706;DHT22;59320;52.316;10.870;2023-07-16T05:07:30;21.30;99.90
70706;DHT22;59320;52.316;10.870;2023-07-16T05:09:57;21.30;99.90
70706;DHT22;59320;52.316;10.870;2023-07-16T05:12:25;21.30;99.90
70706;DHT22;59320;52.316;10.870;2023-07-16T05:14:52;21.30;99.90
70706;DHT22;59320;52.316;10.870;2023-07-16T05:17:19;21.30;99.90
70706;DHT22;59320;52.316;10.870;2023-07-16T05:19:47;21.30;99.90
70706;DHT22;59320;52.316;10.870;2023-07-16T05:22:14;21.20;99.90
70706;DHT22;59320;52.316;10.870;2023-07-16T05:24:41;21.20;99.90
70706;DHT22;59320;52.316;10.870;2023-07-16T05:27:08;21.20;99.90
70706;DHT22;59320;52.316;10.870;2023-07-16T05:29:36;21.20;99.90
70706;DHT22;59320;52.316;10.870;2023-07-16T05:32:04;21.10;99.90
70706;DHT22;59320;52.316;10.870;2023-07-16T05:34:31;21.00;99.90
70706;DHT22;59320;52.316;10.870;2023-07-16T05:36:59;20.90;99.90
70706;DHT22;59320;52.316;10.870;2023-07-16T05:39:26;20.90;99.90
70706;DHT22;59320;52.316;10.870;2023-07-16T05:41:53;20.80;99.90
70706;DHT22;59320;52.316;10.870;2023-07-16T05:44:20;20.80;99.90
70706;DHT22;59320;52.316;10.870;2023-07-16T05:46:48;20.90;99.90
70706;DHT22;59320;52.316;10.870;2023-07-16T05:49:15;20.80;99.90
70706;DHT22;59320;52.316;10.870;2023-07-16T05:51:42;20.80;99.90
70706;DHT22;59320;52.316;10.870;2023-07-16T05:54:09;20.80;99.90
70706;DHT22;59320;52.316;10.870;2023-07-16T05:56:36;20.90;99.90
70706;DHT22;59320;52.316;10.870;2023-07-16T05:59:03;20.80;99.90
70706;DHT22;59320;52.316;10.870;2023-07-16T06:01:30;20.80;99.90
70706;DHT22;59320;52.316;10.870;2023-07-16T06:03:59;20.80;99.90
70706;DHT22;59320;52.316;10.870;2023-07-16T06:06:27;20.80;99.90
70706;DHT22;59320;52.316;10.870;2023-07-16T06:08:54;20.80;99.90
70706;DHT22;59320;52.316;10.870;2023-07-16T06:11:21;20.80;99.90
70706;DHT22;59320;52.316;10.870;2023-07-16T06:13:48;20.90;99.90
70706;DHT22;59320;52.316;10.870;2023-07-16T06:16:15;20.90;99.90
70706;DHT22;59320;52.316;10.870;2023-07-16T06:18:42;20.90;99.90
70706;DHT22;59320;52.316;10.870;2023-07-16T06:21:11;20.90;99.90
70706;DHT22;59320;52.316;10.870;2023-07-16T06:23:38;21.00;99.90
70706;DHT22;59320;52.316;10.870;2023-07-16T06:26:05;21.10;99.90
70706;DHT22;59320;52.316;10.870;2023-07-16T06:28:32;21.30;99.90
70706;DHT22;59320;52.316;10.870;2023-07-16T06:30:59;21.50;99.90
70706;DHT22;59320;52.316;10.870;2023-07-16T06:33:27;21.80;99.90
70706;DHT22;59320;52.316;10.870;2023-07-16T06:35:54;21.90;99.90
70706;DHT22;59320;52.316;10.870;2023-07-16T06:38:22;21.90;99.90
70706;DHT22;59320;52.316;10.870;2023-07-16T06:40:51;22.00;99.90
70706;DHT22;59320;52.316;10.870;2023-07-16T06:43:19;22.10;99.90
70706;DHT22;59320;52.316;10.870;2023-07-16T06:45:48;22.20;99.90
70706;DHT22;59320;52.316;10.870;2023-07-16T06:48:15;22.30;99.90
70706;DHT22;59320;52.316;10.870;2023-07-16T06:50:42;22.50;99.60
70706;DHT22;59320;52.316;10.870;2023-07-16T06:53:09;22.60;98.90
70706;DHT22;59320;52.316;10.870;2023-07-16T06:55:38;22.70;98.80
70706;DHT22;59320;52.316;10.870;2023-07-16T06:58:05;22.90;98.70
70706;DHT22;59320;52.316;10.870;2023-07-16T07:00:32;23.10;98.30
70706;DHT22;59320;52.316;10.870;2023-07-16T07:02:59;23.20;98.00
70706;DHT22;59320;52.316;10.870;2023-07-16T07:05:26;23.30;97.00
70706;DHT22;59320;52.316;10.870;2023-07-16T07:07:53;23.40;97.60
70706;DHT22;59320;52.316;10.870;2023-07-16T07:10:20;23.70;96.90
70706;DHT22;59320;52.316;10.870;2023-07-16T07:12:48;23.70;96.80
70706;DHT22;59320;52.316;10.870;2023-07-16T07:15:15;23.90;96.10
70706;DHT22;59320;52.316;10.870;2023-07-16T07:17:42;23.90;95.90
70706;DHT22;59320;52.316;10.870;2023-07-16T07:20:13;24.00;95.50
70706;DHT22;59320;52.316;10.870;2023-07-16T07:22:40;24.20;95.00
70706;DHT22;59320;52.316;10.870;2023-07-16T07:25:07;24.30;95.20
70706;DHT22;59320;52.316;10.870;2023-07-16T07:27:34;24.40;94.50
70706;DHT22;59320;52.316;10.870;2023-07-16T07:30:03;24.40;94.10
70706;DHT22;59320;52.316;10.870;2023-07-16T07:32:30;24.20;93.70
70706;DHT22;59320;52.316;10.870;2023-07-16T07:34:57;24.00;94.60
70706;DHT22;59320;52.316;10.870;2023-07-16T07:37:24;24.30;94.80
70706;DHT22;59320;52.316;10.870;2023-07-16T07:39:52;24.30;94.10
70706;DHT22;59320;52.316;10.870;2023-07-16T07:42:19;24.20;94.00
70706;DHT22;59320;52.316;10.870;2023-07-16T07:44:46;24.10;93.80
70706;DHT22;59320;52.316;10.870;2023-07-16T07:47:14;23.80;93.50
70706;DHT22;59320;52.316;10.870;2023-07-16T07:49:42;23.60;93.80
70706;DHT22;59320;52.316;10.870;2023-07-16T07:52:09;23.40;94.00
70706;DHT22;59320;52.316;10.870;2023-07-16T07:54:36;23.20;93.90
70706;DHT22;59320;52.316;10.870;2023-07-16T07:57:04;23.20;94.00
70706;DHT22;59320;52.316;10.870;2023-07-16T07:59:31;23.70;93.50
70706;DHT22;59320;52.316;10.870;2023-07-16T08:01:59;24.00;92.70
70706;DHT22;59320;52.316;10.870;2023-07-16T08:04:29;23.90;91.70
70706;DHT22;59320;52.316;10.870;2023-07-16T08:06:57;23.70;91.70
70706;DHT22;59320;52.316;10.870;2023-07-16T08:09:25;23.60;91.80
70706;DHT22;59320;52.316;10.870;2023-07-16T08:11:53;23.50;92.10
70706;DHT22;59320;52.316;10.870;2023-07-16T08:14:20;23.30;91.80
70706;DHT22;59320;52.316;10.870;2023-07-16T08:16:47;23.30;91.70
70706;DHT22;59320;52.316;10.870;2023-07-16T08:19:14;23.30;91.50
70706;DHT22;59320;52.316;10.870;2023-07-16T08:21:44;23.40;91.20
70706;DHT22;59320;52.316;10.870;2023-07-16T08:24:11;23.60;91.50
70706;DHT22;59320;52.316;10.870;2023-07-16T08:26:38;24.00;90.20
70706;DHT22;59320;52.316;10.870;2023-07-16T08:29:05;24.20;88.60
70706;DHT22;59320;52.316;10.870;2023-07-16T08:31:32;24.50;86.70
70706;DHT22;59320;52.316;10.870;2023-07-16T08:33:59;24.70;86.50
70706;DHT22;59320;52.316;10.870;2023-07-16T08:36:26;24.80;85.80
70706;DHT22;59320;52.316;10.870;2023-07-16T08:38:54;24.90;82.70
70706;DHT22;59320;52.316;10.870;2023-07-16T08:41:21;25.10;82.00
70706;DHT22;59320;52.316;10.870;2023-07-16T08:43:49;25.10;79.20
70706;DHT22;59320;52.316;10.870;2023-07-16T08:46:16;25.30;80.50
70706;DHT22;59320;52.316;10.870;2023-07-16T08:48:44;25.50;78.30
70706;DHT22;59320;52.316;10.870;2023-07-16T08:51:14;25.60;76.60
70706;DHT22;59320;52.316;10.870;2023-07-16T08:53:41;25.70;73.40
70706;DHT22;59320;52.316;10.870;2023-07-16T08:56:09;25.80;73.20
70706;DHT22;59320;52.316;10.870;2023-07-16T08:58:36;25.80;72.80
70706;DHT22;59320;52.316;10.870;2023-07-16T09:01:05;25.80;71.60
70706;DHT22;59320;52.316;10.870;2023-07-16T09:03:32;25.80;71.10
70706;DHT22;59320;52.316;10.870;2023-07-16T09:06:02;25.80;70.20
70706;DHT22;59320;52.316;10.870;2023-07-16T09:08:29;25.80;70.40
70706;DHT22;59320;52.316;10.870;2023-07-16T09:10:56;25.90;69.10
70706;DHT22;59320;52.316;10.870;2023-07-16T09:13:25;26.00;69.70
70706;DHT22;59320;52.316;10.870;2023-07-16T09:15:54;25.90;68.30
70706;DHT22;59320;52.316;10.870;2023-07-16T09:18:21;25.80;69.50
70706;DHT22;59320;52.316;10.870;2023-07-16T09:20:49;25.90;70.50
70706;DHT22;59320;52.316;10.870;2023-07-16T09:23:20;25.90;70.60
70706;DHT22;59320;52.316;10.870;2023-07-16T09:25:49;25.90;71.40
70706;DHT22;59320;52.316;10.870;2023-07-16T09:28:19;26.10;71.90
70706;DHT22;59320;52.316;10.870;2023-07-16T09:30:48;26.00;70.30
70706;DHT22;59320;52.316;10.870;2023-07-16T09:33:17;25.80;70.00
70706;DHT22;59320;52.316;10.870;2023-07-16T09:35:44;25.80;71.70
70706;DHT22;59320;52.316;10.870;2023-07-16T09:38:11;25.80;70.70
70706;DHT22;59320;52.316;10.870;2023-07-16T09:40:39;25.80;68.60
70706;DHT22;59320;52.316;10.870;2023-07-16T09:43:08;25.90;69.40
70706;DHT22;59320;52.316;10.870;2023-07-16T09:45:35;26.00;67.10
70706;DHT22;59320;52.316;10.870;2023-07-16T09:48:04;26.20;68.20
70706;DHT22;59320;52.316;10.870;2023-07-16T09:50:32;26.40;66.10
70706;DHT22;59320;52.316;10.870;2023-07-16T09:53:00;26.40;66.30
70706;DHT22;59320;52.316;10.870;2023-07-16T09:55:31;26.20;66.10
70706;DHT22;59320;52.316;10.870;2023-07-16T09:58:00;26.30;66.70
70706;DHT22;59320;52.316;10.870;2023-07-16T10:00:28;26.30;66.60
70706;DHT22;59320;52.316;10.870;2023-07-16T10:02:57;26.30;66.50
70706;DHT22;59320;52.316;10.870;2023-07-16T10:05:27;26.30;67.90
70706;DHT22;59320;52.316;10.870;2023-07-16T10:07:55;26.10;67.90
70706;DHT22;59320;52.316;10.870;2023-07-16T10:10:26;26.00;66.90
70706;DHT22;59320;52.316;10.870;2023-07-16T10:13:04;25.90;67.70
70706;DHT22;59320;52.316;10.870;2023-07-16T10:15:31;25.90;67.10
70706;DHT22;59320;52.316;10.870;2023-07-16T10:17:58;25.90;67.40
70706;DHT22;59320;52.316;10.870;2023-07-16T10:20:31;26.00;67.60
70706;DHT22;59320;52.316;10.870;2023-07-16T10:22:58;26.00;66.20
70706;DHT22;59320;52.316;10.870;2023-07-16T10:25:27;26.00;66.00
70706;DHT22;59320;52.316;10.870;2023-07-16T10:27:55;25.90;64.00
70706;DHT22;59320;52.316;10.870;2023-07-16T10:30:22;25.90;63.90
70706;DHT22;59320;52.316;10.870;2023-07-16T10:32:51;25.90;64.40
70706;DHT22;59320;52.316;10.870;2023-07-16T10:35:19;26.00;64.40
70706;DHT22;59320;52.316;10.870;2023-07-16T10:37:48;26.10;64.00
70706;DHT22;59320;52.316;10.870;2023-07-16T10:40:16;26.30;63.50
70706;DHT22;59320;52.316;10.870;2023-07-16T10:42:44;26.30;62.20
70706;DHT22;59320;52.316;10.870;2023-07-16T10:45:12;26.20;62.60
70706;DHT22;59320;52.316;10.870;2023-07-16T10:47:50;26.30;63.40
70706;DHT22;59320;52.316;10.870;2023-07-16T10:50:19;26.50;62.10
70706;DHT22;59320;52.316;10.870;2023-07-16T10:52:53;26.50;59.50
70706;DHT22;59320;52.316;10.870;2023-07-16T10:55:20;26.50;60.10
70706;DHT22;59320;52.316;10.870;2023-07-16T10:57:48;26.70;60.90
70706;DHT22;59320;52.316;10.870;2023-07-16T11:00:16;27.00;60.60
70706;DHT22;59320;52.316;10.870;2023-07-16T11:02:44;27.20;59.70
70706;DHT22;59320;52.316;10.870;2023-07-16T11:05:12;27.20;58.40
70706;DHT22;59320;52.316;10.870;2023-07-16T11:07:42;27.40;59.50
70706;DHT22;59320;52.316;10.870;2023-07-16T11:10:11;27.70;58.10
70706;DHT22;59320;52.316;10.870;2023-07-16T11:12:38;27.90;56.90
70706;DHT22;59320;52.316;10.870;2023-07-16T11:15:06;28.10;55.00
70706;DHT22;59320;52.316;10.870;2023-07-16T11:17:34;28.20;57.20
70706;DHT22;59320;52.316;10.870;2023-07-16T11:20:05;28.50;54.60
70706;DHT22;59320;52.316;10.870;2023-07-16T11:22:37;28.60;54.10
70706;DHT22;59320;52.316;10.870;2023-07-16T11:25:10;28.70;53.20
70706;DHT22;59320;52.316;10.870;2023-07-16T11:27:40;28.60;54.30
70706;DHT22;59320;52.316;10.870;2023-07-16T11:30:08;28.50;53.60
70706;DHT22;59320;52.316;10.870;2023-07-16T11:32:37;28.70;53.20
70706;DHT22;59320;52.316;10.870;2023-07-16T11:35:06;28.70;53.60
70706;DHT22;59320;52.316;10.870;2023-07-16T11:37:35;29.00;53.00
70706;DHT22;59320;52.316;10.870;2023-07-16T11:40:04;29.10;52.70
70706;DHT22;59320;52.316;10.870;2023-07-16T11:42:34;28.80;52.00
70706;DHT22;59320;52.316;10.870;2023-07-16T11:45:03;28.90;51.40
70706;DHT22;59320;52.316;10.870;2023-07-16T11:47:33;29.30;51.10
70706;DHT22;59320;52.316;10.870;2023-07-16T11:50:00;29.60;48.30
70706;DHT22;59320;52.316;10.870;2023-07-16T11:52:29;29.40;50.60
70706;DHT22;59320;52.316;10.870;2023-07-16T11:54:57;29.40;50.80
70706;DHT22;59320;52.316;10.870;2023-07-16T11:57:31;29.20;49.70
70706;DHT22;59320;52.316;10.870;2023-07-16T11:59:59;29.10;49.60
70706;DHT22;59320;52.316;10.870;2023-07-16T12:02:27;29.30;49.30
70706;DHT22;59320;52.316;10.870;2023-07-16T12:04:55;29.50;50.50
70706;DHT22;59320;52.316;10.870;2023-07-16T12:07:31;29.60;48.50
70706;DHT22;59320;52.316;10.870;2023-07-16T12:09:59;29.70;48.70
70706;DHT22;59320;52.316;10.870;2023-07-16T12:12:26;29.40;48.30
70706;DHT22;59320;52.316;10.870;2023-07-16T12:14:56;29.00;48.10
70706;DHT22;59320;52.316;10.870;2023-07-16T12:17:23;29.00;47.50
70706;DHT22;59320;52.316;10.870;2023-07-16T12:19:51;29.30;49.10
70706;DHT22;59320;52.316;10.870;2023-07-16T12:22:18;29.60;48.30
70706;DHT22;59320;52.316;10.870;2023-07-16T12:24:46;29.70;46.70
70706;DHT22;59320;52.316;10.870;2023-07-16T12:27:14;29.90;46.60
70706;DHT22;59320;52.316;10.870;2023-07-16T12:29:41;29.80;46.40
70706;DHT22;59320;52.316;10.870;2023-07-16T12:32:08;29.70;46.50
70706;DHT22;59320;52.316;10.870;2023-07-16T12:34:36;29.80;45.80
70706;DHT22;59320;52.316;10.870;2023-07-16T12:37:05;29.90;46.50
70706;DHT22;59320;52.316;10.870;2023-07-16T12:39:38;30.20;45.70
70706;DHT22;59320;52.316;10.870;2023-07-16T12:42:06;30.20;45.70
70706;DHT22;59320;52.316;10.870;2023-07-16T12:44:36;29.70;45.50
70706;DHT22;59320;52.316;10.870;2023-07-16T12:47:07;29.60;45.90
70706;DHT22;59320;52.316;10.870;2023-07-16T12:49:37;29.60;46.30
70706;DHT22;59320;52.316;10.870;2023-07-16T12:52:06;29.50;45.70
70706;DHT22;59320;52.316;10.870;2023-07-16T12:54:34;29.20;46.10
70706;DHT22;59320;52.316;10.870;2023-07-16T12:57:01;29.00;46.80
70706;DHT22;59320;52.316;10.870;2023-07-16T12:59:28;29.10;47.90
70706;DHT22;59320;52.316;10.870;2023-07-16T13:01:55;29.40;46.80
70706;DHT22;59320;52.316;10.870;2023-07-16T13:04:23;29.70;46.90
70706;DHT22;59320;52.316;10.870;2023-07-16T13:06:50;30.00;46.10
70706;DHT22;59320;52.316;10.870;2023-07-16T13:09:21;30.20;45.30
70706;DHT22;59320;52.316;10.870;2023-07-16T13:11:48;30.30;43.60
70706;DHT22;59320;52.316;10.870;2023-07-16T13:14:17;30.00;44.00
70706;DHT22;59320;52.316;10.870;2023-07-16T13:16:44;29.70;45.10
70706;DHT22;59320;52.316;10.870;2023-07-16T13:19:11;29.70;44.30
70706;DHT22;59320;52.316;10.870;2023-07-16T13:21:38;29.80;44.90
70706;DHT22;59320;52.316;10.870;2023-07-16T13:24:05;30.00;42.80
70706;DHT22;59320;52.316;10.870;2023-07-16T13:26:34;30.00;44.10
70706;DHT22;59320;52.316;10.870;2023-07-16T13:29:01;30.10;44.20
70706;DHT22;59320;52.316;10.870;2023-07-16T13:31:30;30.40;44.60
70706;DHT22;59320;52.316;10.870;2023-07-16T13:34:00;30.80;43.10
70706;DHT22;59320;52.316;10.870;2023-07-16T13:36:27;30.60;43.00
70706;DHT22;59320;52.316;10.870;2023-07-16T13:38:54;30.30;42.90
70706;DHT22;59320;52.316;10.870;2023-07-16T13:41:21;30.10;43.20
70706;DHT22;59320;52.316;10.870;2023-07-16T13:43:50;29.80;43.40
70706;DHT22;59320;52.316;10.870;2023-07-16T13:46:19;29.40;42.80
70706;DHT22;59320;52.316;10.870;2023-07-16T13:48:46;29.10;44.00
70706;DHT22;59320;52.316;10.870;2023-07-16T13:51:13;28.90;44.30
70706;DHT22;59320;52.316;10.870;2023-07-16T13:53:40;28.70;44.50
70706;DHT22;59320;52.316;10.870;2023-07-16T13:56:07;28.60;45.00
70706;DHT22;59320;52.316;10.870;2023-07-16T13:58:34;28.50;45.20
70706;DHT22;59320;52.316;10.870;2023-07-16T14:01:03;28.40;45.20
70706;DHT22;59320;52.316;10.870;2023-07-16T14:03:30;28.30;45.50
70706;DHT22;59320;52.316;10.870;2023-07-16T14:05:57;28.20;45.40
70706;DHT22;59320;52.316;10.870;2023-07-16T14:08:24;28.20;45.60
70706;DHT22;59320;52.316;10.870;2023-07-16T14:10:54;28.20;45.50
70706;DHT22;59320;52.316;10.870;2023-07-16T14:13:21;28.20;45.60
70706;DHT22;59320;52.316;10.870;2023-07-16T14:15:48;28.40;45.20
70706;DHT22;59320;52.316;10.870;2023-07-16T14:18:16;28.60;44.60
70706;DHT22;59320;52.316;10.870;2023-07-16T14:20:43;28.70;44.20
70706;DHT22;59320;52.316;10.870;2023-07-16T14:23:10;28.90;44.50
70706;DHT22;59320;52.316;10.870;2023-07-16T14:25:37;29.30;44.10
70706;DHT22;59320;52.316;10.870;2023-07-16T14:28:04;29.60;43.40
70706;DHT22;59320;52.316;10.870;2023-07-16T14:30:31;29.60;42.90
70706;DHT22;59320;52.316;10.870;2023-07-16T14:32:58;29.40;42.60
70706;DHT22;59320;52.316;10.870;2023-07-16T14:35:28;29.50;43.00
70706;DHT22;59320;52.316;10.870;2023-07-16T14:37:55;29.70;43.10
70706;DHT22;59320;52.316;10.870;2023-07-16T14:40:22;30.10;42.80
70706;DHT22;59320;52.316;10.870;2023-07-16T14:42:49;30.40;42.20
70706;DHT22;59320;52.316;10.870;2023-07-16T14:45:16;30.60;42.70
70706;DHT22;59320;52.316;10.870;2023-07-16T14:47:43;31.00;42.40
70706;DHT22;59320;52.316;10.870;2023-07-16T14:50:10;31.00;41.70
70706;DHT22;59320;52.316;10.870;2023-07-16T14:52:39;30.70;41.40
70706;DHT22;59320;52.316;10.870;2023-07-16T14:55:06;30.10;42.30
70706;DHT22;59320;52.316;10.870;2023-07-16T14:57:34;29.90;41.80
70706;DHT22;59320;52.316;10.870;2023-07-16T15:00:01;29.90;42.70
70706;DHT22;59320;52.316;10.870;2023-07-16T15:02:28;30.20;42.20
70706;DHT22;59320;52.316;10.870;2023-07-16T15:04:55;30.50;41.80
70706;DHT22;59320;52.316;10.870;2023-07-16T15:07:22;30.50;41.30
70706;DHT22;59320;52.316;10.870;2023-07-16T15:09:52;30.40;41.60
70706;DHT22;59320;52.316;10.870;2023-07-16T15:12:19;30.30;42.30
70706;DHT22;59320;52.316;10.870;2023-07-16T15:14:46;30.20;42.20
70706;DHT22;59320;52.316;10.870;2023-07-16T15:17:13;30.30;41.90
70706;DHT22;59320;52.316;10.870;2023-07-16T15:19:39;30.40;41.30